sensor_id;sensor_type;location;lat;lon;timestamp;pressure;altitude;pressure_sealevel;temperature;humidity
22653;BME280;11493;43.344;26.226;2023-05-19T00:02:36;99263.50;;;13.69;100.00
22653;BME280;11493;43.344;26.226;2023-05-19T00:05:05;99259.31;;;13.63;100.00
22653;BME280;11493;43.344;26.226;2023-05-19T00:07:35;99253.31;;;13.61;100.00
22653;BME280;11493;43.344;26.226;2023-05-19T00:10:04;99269.16;;;13.73;100.00
22653;BME280;11493;43.344;26.226;2023-05-19T00:12:32;99271.31;;;13.67;100.00
22653;BME280;11493;43.344;26.226;2023-05-19T00:14:59;99278.47;;;13.68;100.00
22653;BME280;11493;43.344;26.226;2023-05-19T00:17:26;99282.84;;;13.69;100.00
22653;BME280;11493;43.344;26.226;2023-05-19T00:19:53;99281.56;;;13.67;100.00
22653;BME280;11493;43.344;26.226;2023-05-19T00:22:20;99274.63;;;13.61;100.00
22653;BME280;11493;43.344;26.226;2023-05-19T00:24:47;99279.31;;;13.60;100.00
22653;BME280;11493;43.344;26.226;2023-05-19T00:27:14;99259.09;;;13.47;100.00
22653;BME280;11493;43.344;26.226;2023-05-19T00:29:41;99280.81;;;13.58;100.00
22653;BME280;11493;43.344;26.226;2023-05-19T00:32:08;99281.16;;;13.56;100.00
22653;BME280;11493;43.344;26.226;2023-05-19T00:34:35;99275.34;;;13.49;100.00
22653;BME280;11493;43.344;26.226;2023-05-19T00:37:03;99282.47;;;13.50;100.00
22653;BME280;11493;43.344;26.226;2023-05-19T00:39:30;99273.72;;;13.48;100.00
22653;BME280;11493;43.344;26.226;2023-05-19T00:41:57;99298.53;;;13.57;100.00
22653;BME280;11493;43.344;26.226;2023-05-19T00:44:23;99286.06;;;13.51;100.00
22653;BME280;11493;43.344;26.226;2023-05-19T00:46:50;99292.88;;;13.53;100.00
22653;BME280;11493;43.344;26.226;2023-05-19T00:49:17;99298.06;;;13.55;100.00
22653;BME280;11493;43.344;26.226;2023-05-19T00:51:44;99289.22;;;13.40;100.00
22653;BME280;11493;43.344;26.226;2023-05-19T00:54:11;99298.25;;;13.49;100.00
22653;BME280;11493;43.344;26.226;2023-05-19T00:56:38;99300.06;;;13.45;100.00
22653;BME280;11493;43.344;26.226;2023-05-19T00:59:06;99295.69;;;13.44;100.00
22653;BME280;11493;43.344;26.226;2023-05-19T01:01:33;99293.94;;;13.40;100.00
22653;BME280;11493;43.344;26.226;2023-05-19T01:04:01;99304.97;;;13.40;100.00
22653;BME280;11493;43.344;26.226;2023-05-19T01:06:30;99314.22;;;13.44;100.00
22653;BME280;11493;43.344;26.226;2023-05-19T01:08:57;99302.22;;;13.40;100.00
22653;BME280;11493;43.344;26.226;2023-05-19T01:11:24;99297.09;;;13.30;100.00
22653;BME280;11493;43.344;26.226;2023-05-19T01:13:51;99290.63;;;13.26;100.00
22653;BME280;11493;43.344;26.226;2023-05-19T01:19:52;99298.63;;;13.10;100.00
22653;BME280;11493;43.344;26.226;2023-05-19T01:22:56;99304.19;;;13.01;100.00
22653;BME280;11493;43.344;26.226;2023-05-19T01:31:05;99306.31;;;12.96;100.00
22653;BME280;11493;43.344;26.226;2023-05-19T01:33:33;99310.56;;;12.93;100.00
22653;BME280;11493;43.344;26.226;2023-05-19T01:36:02;99315.75;;;12.95;100.00
22653;BME280;11493;43.344;26.226;2023-05-19T01:38:31;99309.94;;;12.88;100.00
22653;BME280;11493;43.344;26.226;2023-05-19T01:40:59;99310.75;;;12.88;100.00
22653;BME280;11493;43.344;26.226;2023-05-19T01:43:30;99297.78;;;12.80;100.00
22653;BME280;11493;43.344;26.226;2023-05-19T01:45:57;99289.66;;;12.75;100.00
22653;BME280;11493;43.344;26.226;2023-05-19T01:48:25;99315.63;;;12.82;100.00
22653;BME280;11493;43.344;26.226;2023-05-19T01:50:52;99322.13;;;12.87;100.00
22653;BME280;11493;43.344;26.226;2023-05-19T01:53:20;99314.50;;;12.83;100.00
22653;BME280;11493;43.344;26.226;2023-05-19T01:55:55;99325.03;;;12.90;100.00
22653;BME280;11493;43.344;26.226;2023-05-19T01:58:46;99321.59;;;12.93;100.00
22653;BME280;11493;43.344;26.226;2023-05-19T02:01:21;99324.38;;;12.93;100.00
22653;BME280;11493;43.344;26.226;2023-05-19T02:04:01;99321.13;;;12.91;100.00
22653;BME280;11493;43.344;26.226;2023-05-19T02:09:52;99326.97;;;12.90;100.00
22653;BME280;11493;43.344;26.226;2023-05-19T02:12:31;99314.81;;;12.82;100.00
22653;BME280;11493;43.344;26.226;2023-05-19T02:17:33;99330.72;;;12.85;100.00
22653;BME280;11493;43.344;26.226;2023-05-19T02:20:08;99320.38;;;12.73;100.00
22653;BME280;11493;43.344;26.226;2023-05-19T02:22:36;99327.34;;;12.71;100.00
22653;BME280;11493;43.344;26.226;2023-05-19T02:25:03;99329.28;;;12.79;100.00
22653;BME280;11493;43.344;26.226;2023-05-19T02:27:32;99341.47;;;12.78;100.00
22653;BME280;11493;43.344;26.226;2023-05-19T02:30:02;99324.44;;;12.67;100.00
22653;BME280;11493;43.344;26.226;2023-05-19T02:32:30;99340.81;;;12.72;100.00
22653;BME280;11493;43.344;26.226;2023-05-19T02:34:57;99350.72;;;12.73;100.00
22653;BME280;11493;43.344;26.226;2023-05-19T02:37:25;99350.44;;;12.66;100.00
22653;BME280;11493;43.344;26.226;2023-05-19T02:39:54;99350.44;;;12.66;100.00
22653;BME280;11493;43.344;26.226;2023-05-19T02:42:22;99350.47;;;12.58;100.00
22653;BME280;11493;43.344;26.226;2023-05-19T02:44:49;99348.84;;;12.57;100.00
22653;BME280;11493;43.344;26.226;2023-05-19T02:47:18;99357.63;;;12.59;100.00
22653;BME280;11493;43.344;26.226;2023-05-19T02:49:45;99355.19;;;12.57;100.00
22653;BME280;11493;43.344;26.226;2023-05-19T02:52:14;99360.38;;;12.59;100.00
22653;BME280;11493;43.344;26.226;2023-05-19T02:54:41;99358.41;;;12.59;100.00
22653;BME280;11493;43.344;26.226;2023-05-19T02:57:09;99365.56;;;12.60;100.00
22653;BME280;11493;43.344;26.226;2023-05-19T02:59:36;99357.94;;;12.57;100.00
22653;BME280;11493;43.344;26.226;2023-05-19T03:02:03;99368.66;;;12.59;100.00
22653;BME280;11493;43.344;26.226;2023-05-19T03:04:30;99375.78;;;12.60;100.00
22653;BME280;11493;43.344;26.226;2023-05-19T03:06:58;99359.06;;;12.56;100.00
22653;BME280;11493;43.344;26.226;2023-05-19T03:09:24;99362.97;;;12.55;100.00
22653;BME280;11493;43.344;26.226;2023-05-19T03:11:52;99374.66;;;12.61;100.00
22653;BME280;11493;43.344;26.226;2023-05-19T03:14:20;99382.94;;;12.61;100.00
22653;BME280;11493;43.344;26.226;2023-05-19T03:16:50;99382.13;;;12.60;100.00
22653;BME280;11493;43.344;26.226;2023-05-19T03:19:17;99382.13;;;12.60;100.00
22653;BME280;11493;43.344;26.226;2023-05-19T03:21:44;99389.59;;;12.60;100.00
22653;BME280;11493;43.344;26.226;2023-05-19T03:24:12;99387.50;;;12.57;100.00
22653;BME280;11493;43.344;26.226;2023-05-19T03:26:39;99402.72;;;12.63;100.00
22653;BME280;11493;43.344;26.226;2023-05-19T03:29:06;99397.06;;;12.59;100.00
22653;BME280;11493;43.344;26.226;2023-05-19T03:31:35;99378.72;;;12.55;100.00
22653;BME280;11493;43.344;26.226;2023-05-19T03:34:03;99411.63;;;12.77;100.00
22653;BME280;11493;43.344;26.226;2023-05-19T03:36:30;99410.16;;;12.79;100.00
22653;BME280;11493;43.344;26.226;2023-05-19T03:38:59;99397.81;;;12.77;100.00
22653;BME280;11493;43.344;26.226;2023-05-19T03:41:26;99402.03;;;12.83;100.00
22653;BME280;11493;43.344;26.226;2023-05-19T03:43:54;99380.13;;;12.69;100.00
22653;BME280;11493;43.344;26.226;2023-05-19T03:46:21;99419.88;;;12.94;100.00
22653;BME280;11493;43.344;26.226;2023-05-19T03:49:01;99415.66;;;12.88;100.00
22653;BME280;11493;43.344;26.226;2023-05-19T03:51:28;99414.06;;;12.87;100.00
22653;BME280;11493;43.344;26.226;2023-05-19T03:54:03;99415.84;;;12.92;100.00
22653;BME280;11493;43.344;26.226;2023-05-19T03:56:30;99413.41;;;12.90;100.00
22653;BME280;11493;43.344;26.226;2023-05-19T03:58:58;99416.78;;;12.96;100.00
22653;BME280;11493;43.344;26.226;2023-05-19T04:01:25;99398.78;;;12.81;100.00
22653;BME280;11493;43.344;26.226;2023-05-19T04:03:53;99430.28;;;12.97;100.00
22653;BME280;11493;43.344;26.226;2023-05-19T04:06:20;99422.16;;;12.92;100.00
22653;BME280;11493;43.344;26.226;2023-05-19T04:08:47;99428.50;;;12.93;100.00
22653;BME280;11493;43.344;26.226;2023-05-19T04:11:15;99435.00;;;12.97;100.00
22653;BME280;11493;43.344;26.226;2023-05-19T04:13:42;99431.41;;;12.96;100.00
22653;BME280;11493;43.344;26.226;2023-05-19T04:16:11;99431.91;;;12.98;100.00
22653;BME280;11493;43.344;26.226;2023-05-19T04:18:38;99437.25;;;13.03;100.00
22653;BME280;11493;43.344;26.226;2023-05-19T04:21:05;99447.47;;;13.11;100.00
22653;BME280;11493;43.344;26.226;2023-05-19T04:23:34;99434.47;;;13.21;100.00
22653;BME280;11493;43.344;26.226;2023-05-19T04:26:01;99421.31;;;13.18;100.00
22653;BME280;11493;43.344;26.226;2023-05-19T04:28:29;99408.66;;;13.17;100.00
22653;BME280;11493;43.344;26.226;2023-05-19T04:30:56;99424.84;;;13.35;100.00
22653;BME280;11493;43.344;26.226;2023-05-19T04:33:24;99421.38;;;13.38;100.00
22653;BME280;11493;43.344;26.226;2023-05-19T04:35:52;99423.31;;;13.46;100.00
22653;BME280;11493;43.344;26.226;2023-05-19T04:38:19;99438.53;;;13.61;100.00
22653;BME280;11493;43.344;26.226;2023-05-19T04:40:48;99435.06;;;13.73;100.00
22653;BME280;11493;43.344;26.226;2023-05-19T04:43:16;99442.31;;;13.86;100.00
22653;BME280;11493;43.344;26.226;2023-05-19T04:45:45;99439.84;;;13.93;100.00
22653;BME280;11493;43.344;26.226;2023-05-19T04:48:13;99426.16;;;13.97;100.00
22653;BME280;11493;43.344;26.226;2023-05-19T04:50:41;99435.13;;;14.14;100.00
22653;BME280;11493;43.344;26.226;2023-05-19T04:53:08;99429.06;;;14.21;100.00
22653;BME280;11493;43.344;26.226;2023-05-19T04:55:44;99431.56;;;14.35;100.00
22653;BME280;11493;43.344;26.226;2023-05-19T04:58:12;99439.91;;;14.56;100.00
22653;BME280;11493;43.344;26.226;2023-05-19T05:00:39;99439.28;;;14.71;100.00
22653;BME280;11493;43.344;26.226;2023-05-19T05:03:07;99424.50;;;14.67;100.00
22653;BME280;11493;43.344;26.226;2023-05-19T05:05:34;99440.50;;;14.94;100.00
22653;BME280;11493;43.344;26.226;2023-05-19T05:08:01;99435.56;;;15.00;100.00
22653;BME280;11493;43.344;26.226;2023-05-19T05:10:34;99442.38;;;15.02;100.00
22653;BME280;11493;43.344;26.226;2023-05-19T05:13:01;99449.34;;;15.08;100.00
22653;BME280;11493;43.344;26.226;2023-05-19T05:15:29;99444.38;;;15.14;100.00
22653;BME280;11493;43.344;26.226;2023-05-19T05:17:59;99460.00;;;15.19;100.00
22653;BME280;11493;43.344;26.226;2023-05-19T05:20:26;99452.53;;;15.31;100.00
22653;BME280;11493;43.344;26.226;2023-05-19T05:22:54;99456.59;;;15.46;100.00
22653;BME280;11493;43.344;26.226;2023-05-19T05:25:22;99455.50;;;15.59;100.00
22653;BME280;11493;43.344;26.226;2023-05-19T05:27:49;99460.78;;;15.76;100.00
22653;BME280;11493;43.344;26.226;2023-05-19T05:30:17;99457.56;;;15.87;100.00
22653;BME280;11493;43.344;26.226;2023-05-19T05:32:44;99457.91;;;15.97;100.00
22653;BME280;11493;43.344;26.226;2023-05-19T05:35:26;99465.91;;;15.99;100.00
22653;BME280;11493;43.344;26.226;2023-05-19T05:37:54;99459.88;;;16.09;100.00
22653;BME280;11493;43.344;26.226;2023-05-19T05:40:21;99466.69;;;16.24;100.00
22653;BME280;11493;43.344;26.226;2023-05-19T05:42:48;99468.59;;;16.35;100.00
22653;BME280;11493;43.344;26.226;2023-05-19T05:45:18;99463.50;;;16.37;100.00
22653;BME280;11493;43.344;26.226;2023-05-19T05:47:45;99467.06;;;16.50;100.00
22653;BME280;11493;43.344;26.226;2023-05-19T05:50:13;99459.78;;;16.46;100.00
22653;BME280;11493;43.344;26.226;2023-05-19T05:52:45;99476.69;;;16.53;100.00
22653;BME280;11493;43.344;26.226;2023-05-19T05:55:15;99471.78;;;16.74;100.00
22653;BME280;11493;43.344;26.226;2023-05-19T05:57:46;99477.06;;;16.91;100.00
22653;BME280;11493;43.344;26.226;2023-05-19T06:00:15;99466.25;;;17.02;100.00
22653;BME280;11493;43.344;26.226;2023-05-19T06:02:47;99484.66;;;17.22;100.00
22653;BME280;11493;43.344;26.226;2023-05-19T06:05:16;99484.88;;;17.45;100.00
22653;BME280;11493;43.344;26.226;2023-05-19T06:07:45;99474.94;;;17.44;100.00
22653;BME280;11493;43.344;26.226;2023-05-19T06:10:17;99484.56;;;17.62;100.00
22653;BME280;11493;43.344;26.226;2023-05-19T06:12:45;99488.78;;;17.56;100.00
22653;BME280;11493;43.344;26.226;2023-05-19T06:15:14;99497.16;;;17.72;100.00
22653;BME280;11493;43.344;26.226;2023-05-19T06:17:49;99490.41;;;17.89;100.00
22653;BME280;11493;43.344;26.226;2023-05-19T06:20:17;99492.28;;;18.00;100.00
22653;BME280;11493;43.344;26.226;2023-05-19T06:22:44;99497.59;;;18.05;100.00
22653;BME280;11493;43.344;26.226;2023-05-19T06:25:14;99501.34;;;18.13;100.00
22653;BME280;11493;43.344;26.226;2023-05-19T06:27:42;99504.59;;;18.15;100.00
22653;BME280;11493;43.344;26.226;2023-05-19T06:30:10;99507.38;;;18.15;100.00
22653;BME280;11493;43.344;26.226;2023-05-19T06:32:48;99500.16;;;18.30;100.00
22653;BME280;11493;43.344;26.226;2023-05-19T06:35:15;99499.16;;;18.38;100.00
22653;BME280;11493;43.344;26.226;2023-05-19T06:37:42;99511.72;;;18.48;100.00
22653;BME280;11493;43.344;26.226;2023-05-19T06:40:10;99505.50;;;18.54;99.12
22653;BME280;11493;43.344;26.226;2023-05-19T06:42:38;99519.06;;;18.56;98.24
22653;BME280;11493;43.344;26.226;2023-05-19T06:45:13;99520.59;;;18.53;95.12
22653;BME280;11493;43.344;26.226;2023-05-19T06:47:40;99520.72;;;18.76;94.65
22653;BME280;11493;43.344;26.226;2023-05-19T06:50:09;99512.03;;;18.97;93.94
22653;BME280;11493;43.344;26.226;2023-05-19T06:52:39;99523.38;;;18.88;92.56
22653;BME280;11493;43.344;26.226;2023-05-19T06:55:07;99528.31;;;18.95;91.99
22653;BME280;11493;43.344;26.226;2023-05-19T06:57:36;99522.56;;;18.88;93.30
22653;BME280;11493;43.344;26.226;2023-05-19T07:00:05;99529.31;;;18.87;93.90
22653;BME280;11493;43.344;26.226;2023-05-19T07:02:37;99532.59;;;18.73;95.38
22653;BME280;11493;43.344;26.226;2023-05-19T07:05:05;99528.22;;;18.91;94.66
22653;BME280;11493;43.344;26.226;2023-05-19T07:07:33;99526.78;;;18.97;94.04
22653;BME280;11493;43.344;26.226;2023-05-19T07:10:01;99529.34;;;19.06;94.11
22653;BME280;11493;43.344;26.226;2023-05-19T07:12:31;99534.72;;;19.15;95.16
22653;BME280;11493;43.344;26.226;2023-05-19T07:14:58;99520.75;;;19.15;93.76
22653;BME280;11493;43.344;26.226;2023-05-19T07:17:26;99519.22;;;19.17;94.55
22653;BME280;11493;43.344;26.226;2023-05-19T07:19:53;99521.59;;;19.38;95.67
22653;BME280;11493;43.344;26.226;2023-05-19T07:22:20;99495.66;;;19.15;95.70
22653;BME280;11493;43.344;26.226;2023-05-19T07:24:48;99508.94;;;19.21;93.32
22653;BME280;11493;43.344;26.226;2023-05-19T07:27:16;99520.97;;;19.25;93.65
22653;BME280;11493;43.344;26.226;2023-05-19T07:29:43;99526.34;;;19.15;94.76
22653;BME280;11493;43.344;26.226;2023-05-19T07:32:12;99520.53;;;19.23;94.85
22653;BME280;11493;43.344;26.226;2023-05-19T07:34:40;99525.13;;;19.54;93.45
22653;BME280;11493;43.344;26.226;2023-05-19T07:37:07;99528.44;;;19.83;88.79
22653;BME280;11493;43.344;26.226;2023-05-19T07:39:34;99515.00;;;19.88;85.52
22653;BME280;11493;43.344;26.226;2023-05-19T07:42:02;99529.88;;;19.96;86.60
22653;BME280;11493;43.344;26.226;2023-05-19T07:44:29;99533.91;;;19.98;85.26
22653;BME280;11493;43.344;26.226;2023-05-19T07:46:57;99526.59;;;19.90;86.48
22653;BME280;11493;43.344;26.226;2023-05-19T07:49:25;99523.19;;;20.00;86.64
22653;BME280;11493;43.344;26.226;2023-05-19T07:51:52;99526.78;;;20.27;86.63
22653;BME280;11493;43.344;26.226;2023-05-19T07:54:19;99522.22;;;20.39;85.49
22653;BME280;11493;43.344;26.226;2023-05-19T07:56:47;99519.59;;;20.49;86.21
22653;BME280;11493;43.344;26.226;2023-05-19T07:59:14;99536.56;;;20.63;84.07
22653;BME280;11493;43.344;26.226;2023-05-19T08:01:41;99532.59;;;20.64;83.75
22653;BME280;11493;43.344;26.226;2023-05-19T08:04:09;99530.81;;;20.79;83.26
22653;BME280;11493;43.344;26.226;2023-05-19T08:06:39;99528.06;;;20.86;81.75
22653;BME280;11493;43.344;26.226;2023-05-19T08:09:08;99513.50;;;20.70;81.57
22653;BME280;11493;43.344;26.226;2023-05-19T08:11:35;99529.22;;;20.82;80.93
22653;BME280;11493;43.344;26.226;2023-05-19T08:14:03;99530.22;;;20.96;82.04
22653;BME280;11493;43.344;26.226;2023-05-19T08:16:30;99519.63;;;21.13;84.04
22653;BME280;11493;43.344;26.226;2023-05-19T08:18:57;99522.28;;;21.32;85.14
22653;BME280;11493;43.344;26.226;2023-05-19T08:21:27;99510.50;;;21.49;82.09
22653;BME280;11493;43.344;26.226;2023-05-19T08:23:54;99520.59;;;21.61;81.61
22653;BME280;11493;43.344;26.226;2023-05-19T08:26:22;99520.22;;;21.62;82.22
22653;BME280;11493;43.344;26.226;2023-05-19T08:28:49;99513.06;;;21.69;80.63
22653;BME280;11493;43.344;26.226;2023-05-19T08:31:16;99517.03;;;21.64;81.34
22653;BME280;11493;43.344;26.226;2023-05-19T08:33:44;99514.88;;;21.47;81.55
22653;BME280;11493;43.344;26.226;2023-05-19T08:36:12;99509.03;;;21.25;78.97
22653;BME280;11493;43.344;26.226;2023-05-19T08:38:39;99516.09;;;21.49;78.30
22653;BME280;11493;43.344;26.226;2023-05-19T08:41:06;99518.59;;;21.61;77.61
22653;BME280;11493;43.344;26.226;2023-05-19T08:43:34;99518.28;;;21.70;75.54
22653;BME280;11493;43.344;26.226;2023-05-19T08:46:02;99524.84;;;21.85;75.43
22653;BME280;11493;43.344;26.226;2023-05-19T08:48:29;99520.56;;;21.98;76.21
22653;BME280;11493;43.344;26.226;2023-05-19T08:53:57;99517.97;;;22.19;74.84
22653;BME280;11493;43.344;26.226;2023-05-19T08:56:26;99500.41;;;22.29;77.01
22653;BME280;11493;43.344;26.226;2023-05-19T08:58:54;99508.50;;;22.42;78.09
22653;BME280;11493;43.344;26.226;2023-05-19T09:01:25;99518.22;;;22.55;72.08
22653;BME280;11493;43.344;26.226;2023-05-19T09:03:55;99499.00;;;22.57;70.05
22653;BME280;11493;43.344;26.226;2023-05-19T09:06:22;99503.03;;;22.63;67.83
22653;BME280;11493;43.344;26.226;2023-05-19T09:08:49;99503.03;;;22.59;67.93
22653;BME280;11493;43.344;26.226;2023-05-19T09:11:16;99505.06;;;22.66;69.41
22653;BME280;11493;43.344;26.226;2023-05-19T09:13:44;99506.72;;;22.78;67.67
22653;BME280;11493;43.344;26.226;2023-05-19T09:16:11;99510.06;;;22.36;68.92
22653;BME280;11493;43.344;26.226;2023-05-19T09:18:39;99514.16;;;22.49;70.16
22653;BME280;11493;43.344;26.226;2023-05-19T09:21:08;99493.09;;;22.11;68.01
22653;BME280;11493;43.344;26.226;2023-05-19T09:23:36;99515.00;;;22.53;67.42
22653;BME280;11493;43.344;26.226;2023-05-19T09:26:04;99503.03;;;22.59;65.37
22653;BME280;11493;43.344;26.226;2023-05-19T09:28:35;99494.56;;;22.52;68.50
22653;BME280;11493;43.344;26.226;2023-05-19T09:33:35;99503.22;;;22.91;68.97
22653;BME280;11493;43.344;26.226;2023-05-19T09:36:03;99498.47;;;23.10;64.55
22653;BME280;11493;43.344;26.226;2023-05-19T09:38:39;99490.00;;;22.92;64.68
22653;BME280;11493;43.344;26.226;2023-05-19T09:41:07;99490.06;;;23.10;64.59
22653;BME280;11493;43.344;26.226;2023-05-19T09:43:35;99498.56;;;23.31;64.42
22653;BME280;11493;43.344;26.226;2023-05-19T09:46:06;99488.59;;;23.51;61.19
22653;BME280;11493;43.344;26.226;2023-05-19T09:48:33;99489.44;;;23.55;62.59
22653;BME280;11493;43.344;26.226;2023-05-19T09:51:03;99472.09;;;23.32;62.49
22653;BME280;11493;43.344;26.226;2023-05-19T09:53:33;99488.50;;;23.26;62.00
22653;BME280;11493;43.344;26.226;2023-05-19T09:56:01;99483.75;;;23.41;60.33
22653;BME280;11493;43.344;26.226;2023-05-19T09:58:33;99474.53;;;23.51;60.28
22653;BME280;11493;43.344;26.226;2023-05-19T10:01:04;99486.63;;;23.80;61.21
22653;BME280;11493;43.344;26.226;2023-05-19T10:03:32;99481.00;;;23.63;60.51
22653;BME280;11493;43.344;26.226;2023-05-19T10:06:00;99477.78;;;23.57;61.13
22653;BME280;11493;43.344;26.226;2023-05-19T10:08:30;99477.31;;;23.37;59.70
22653;BME280;11493;43.344;26.226;2023-05-19T10:10:58;99467.78;;;23.59;59.06
22653;BME280;11493;43.344;26.226;2023-05-19T10:13:25;99468.56;;;23.64;58.98
22653;BME280;11493;43.344;26.226;2023-05-19T10:15:54;99457.34;;;23.99;56.79
22653;BME280;11493;43.344;26.226;2023-05-19T10:18:25;99454.94;;;23.98;56.30
22653;BME280;11493;43.344;26.226;2023-05-19T10:20:56;99456.13;;;23.93;57.88
22653;BME280;11493;43.344;26.226;2023-05-19T10:23:24;99460.94;;;23.57;58.27
22653;BME280;11493;43.344;26.226;2023-05-19T10:25:53;99453.25;;;23.40;59.64
22653;BME280;11493;43.344;26.226;2023-05-19T10:28:24;99464.94;;;23.56;58.56
22653;BME280;11493;43.344;26.226;2023-05-19T10:30:58;99457.28;;;23.49;58.24
22653;BME280;11493;43.344;26.226;2023-05-19T10:36:48;99446.38;;;23.16;59.02
22653;BME280;11493;43.344;26.226;2023-05-19T10:39:25;99450.38;;;23.11;61.07
22653;BME280;11493;43.344;26.226;2023-05-19T10:47:36;99442.44;;;23.45;59.46
22653;BME280;11493;43.344;26.226;2023-05-19T10:50:03;99442.41;;;23.31;59.74
22653;BME280;11493;43.344;26.226;2023-05-19T10:52:36;99451.66;;;23.42;60.39
22653;BME280;11493;43.344;26.226;2023-05-19T10:55:06;99437.63;;;23.42;58.02
22653;BME280;11493;43.344;26.226;2023-05-19T10:57:34;99428.66;;;22.87;57.25
22653;BME280;11493;43.344;26.226;2023-05-19T11:00:04;99433.47;;;22.86;59.39
22653;BME280;11493;43.344;26.226;2023-05-19T11:02:51;99413.47;;;22.99;59.65
22653;BME280;11493;43.344;26.226;2023-05-19T11:05:28;99393.38;;;22.82;57.59
22653;BME280;11493;43.344;26.226;2023-05-19T11:07:58;99399.03;;;23.14;58.00
22653;BME280;11493;43.344;26.226;2023-05-19T11:10:33;99395.53;;;23.56;57.81
22653;BME280;11493;43.344;26.226;2023-05-19T11:13:00;99387.88;;;23.96;57.82
22653;BME280;11493;43.344;26.226;2023-05-19T11:15:27;99404.72;;;24.10;55.89
22653;BME280;11493;43.344;26.226;2023-05-19T11:17:55;99393.88;;;24.19;56.48
22653;BME280;11493;43.344;26.226;2023-05-19T11:25:49;99388.63;;;24.21;52.53
22653;BME280;11493;43.344;26.226;2023-05-19T11:28:19;99394.25;;;24.39;53.17
22653;BME280;11493;43.344;26.226;2023-05-19T11:30:47;99376.16;;;24.40;53.72
22653;BME280;11493;43.344;26.226;2023-05-19T11:33:21;99382.00;;;24.81;54.21
22653;BME280;11493;43.344;26.226;2023-05-19T11:35:54;99378.16;;;24.43;53.77
22653;BME280;11493;43.344;26.226;2023-05-19T11:38:25;99378.59;;;24.35;52.70
22653;BME280;11493;43.344;26.226;2023-05-19T11:40:52;99373.00;;;24.28;48.40
22653;BME280;11493;43.344;26.226;2023-05-19T11:43:23;99340.50;;;23.98;47.81
22653;BME280;11493;43.344;26.226;2023-05-19T11:45:52;99373.38;;;24.15;48.56
22653;BME280;11493;43.344;26.226;2023-05-19T11:48:20;99370.16;;;24.24;49.52
22653;BME280;11493;43.344;26.226;2023-05-19T11:50:47;99381.00;;;24.22;50.20
22653;BME280;11493;43.344;26.226;2023-05-19T11:53:14;99360.63;;;23.75;50.74
22653;BME280;11493;43.344;26.226;2023-05-19T11:55:46;99373.88;;;23.75;50.93
22653;BME280;11493;43.344;26.226;2023-05-19T11:58:14;99375.06;;;23.70;53.00
22653;BME280;11493;43.344;26.226;2023-05-19T12:00:43;99387.50;;;23.73;52.18
22653;BME280;11493;43.344;26.226;2023-05-19T12:03:11;99365.84;;;23.55;52.42
22653;BME280;11493;43.344;26.226;2023-05-19T12:05:43;99367.81;;;23.51;50.63
22653;BME280;11493;43.344;26.226;2023-05-19T12:08:13;99383.09;;;23.57;49.98
22653;BME280;11493;43.344;26.226;2023-05-19T12:10:42;99373.44;;;23.51;50.11
22653;BME280;11493;43.344;26.226;2023-05-19T12:13:09;99387.91;;;23.57;50.18
22653;BME280;11493;43.344;26.226;2023-05-19T12:15:36;99392.69;;;23.42;51.69
22653;BME280;11493;43.344;26.226;2023-05-19T12:18:04;99399.03;;;22.93;55.17
22653;BME280;11493;43.344;26.226;2023-05-19T12:20:32;99409.13;;;22.36;59.37
22653;BME280;11493;43.344;26.226;2023-05-19T12:23:02;99420.28;;;22.18;63.40
22653;BME280;11493;43.344;26.226;2023-05-19T12:25:30;99429.34;;;21.56;62.84
22653;BME280;11493;43.344;26.226;2023-05-19T12:27:59;99429.00;;;21.21;62.62
22653;BME280;11493;43.344;26.226;2023-05-19T12:30:29;99437.06;;;20.92;62.82
22653;BME280;11493;43.344;26.226;2023-05-19T12:32:58;99447.72;;;20.50;65.51
22653;BME280;11493;43.344;26.226;2023-05-19T12:35:26;99463.72;;;20.26;64.90
22653;BME280;11493;43.344;26.226;2023-05-19T12:37:54;99463.78;;;20.04;71.14
22653;BME280;11493;43.344;26.226;2023-05-19T12:40:21;99436.75;;;19.62;78.46
22653;BME280;11493;43.344;26.226;2023-05-19T12:42:49;99427.03;;;19.33;83.47
22653;BME280;11493;43.344;26.226;2023-05-19T12:45:20;99422.22;;;19.30;83.06
22653;BME280;11493;43.344;26.226;2023-05-19T12:47:49;99414.41;;;19.16;83.67
22653;BME280;11493;43.344;26.226;2023-05-19T12:50:17;99443.97;;;19.21;85.57
22653;BME280;11493;43.344;26.226;2023-05-19T12:52:46;99461.00;;;19.16;87.33
22653;BME280;11493;43.344;26.226;2023-05-19T12:55:14;99477.53;;;19.05;89.17
22653;BME280;11493;43.344;26.226;2023-05-19T12:57:48;99469.59;;;18.88;92.90
22653;BME280;11493;43.344;26.226;2023-05-19T13:00:23;99466.53;;;18.74;97.89
22653;BME280;11493;43.344;26.226;2023-05-19T13:05:22;99447.00;;;18.54;100.00
22653;BME280;11493;43.344;26.226;2023-05-19T13:08:19;99447.22;;;18.65;99.73
22653;BME280;11493;43.344;26.226;2023-05-19T13:10:48;99434.25;;;18.73;99.69
22653;BME280;11493;43.344;26.226;2023-05-19T13:13:15;99432.13;;;18.85;100.00
22653;BME280;11493;43.344;26.226;2023-05-19T13:15:44;99423.44;;;18.90;100.00
22653;BME280;11493;43.344;26.226;2023-05-19T13:18:12;99436.50;;;19.06;100.00
22653;BME280;11493;43.344;26.226;2023-05-19T13:20:42;99425.19;;;19.18;100.00
22653;BME280;11493;43.344;26.226;2023-05-19T13:23:11;99434.84;;;19.47;100.00
22653;BME280;11493;43.344;26.226;2023-05-19T13:25:38;99432.41;;;19.64;97.09
22653;BME280;11493;43.344;26.226;2023-05-19T13:28:05;99435.13;;;19.84;94.05
22653;BME280;11493;43.344;26.226;2023-05-19T13:30:37;99451.38;;;20.01;92.41
22653;BME280;11493;43.344;26.226;2023-05-19T13:33:05;99462.75;;;20.15;92.10